Kensington, Ohio
Current Conditions -  °F | °C
As of 7:51 PM on Wednesday 22 Oct 2014 (Local Time) from KCAK Reporting Station
Overcast Overcast  
Wind Chill: 45°   Ceiling: 3300
Heat Index: 49°   Visibility: 10mi
Dew Point: 40°   Wind: 8mph
Humidity: 71%   Direction: 350°N
Pressure: 30.22"   Gusts: NA
Location:  40.74°N, 80.96°W
Report Text: KCAK 222351Z 35007KT 10SM SCT027 OVC033 09/04 A3022 RMK AO2 SLP238 T00940044 10106 20094 50000 $
Loading
Personal Weather Stations






























Interactive Weather Map
Tropical Storm Tracking
New forecast layout! Learn more

10-Day Weather Forecast

Advertisements
Track Severe Weather on mobile